Grubville, MO

8:36 AM CST on February 22, 2018 (GMT -0600)
Browns Ford | | Change Station
Active Advisory: Winter Weather Advisory

Elev 660 ft 38.21 °N, 90.69 °W | Updated 3 minutes ago

Overcast
Overcast
34.5 °F
Feels Like 34 °F
N
0.0
Wind Variable Wind from North
Gusts 0.0 mph

Today
High -- | Low -- °F
--% Chance of Precip.
Yesterday
High -- | Low -- °F
Precip. -- in
Pressure 30.40 in
Visibility 2.5 miles
Clouds Mostly Cloudy 700 ft
Windchill 34 °F
Dew Point 31 °F
Humidity 88%
Rainfall Not available.
Snow Depth Not available.
6:44 AM 5:49 PM
Waxing Crescent, 42% visible
METAR KFYG 221415Z AUTO 00000KT 2 1/2SM -RA BKN007 01/00 A3040 RMK AO2
Pressure 30.40 in
Visibility 2.5 miles
Clouds Mostly Cloudy 700 ft
Windchill 34 °F
Dew Point 31 °F
Humidity 88%
Rainfall Not available.
Snow Depth Not available.
6:44 AM 5:49 PM
Waxing Crescent, 42% visible
METAR KFYG 221415Z AUTO 00000KT 2 1/2SM -RA BKN007 01/00 A3040 RMK AO2

Get Your Daily Forecast Email!

Thanks for signing up!

Be on the lookout for a verification email in your inbox.

You'll start receiving severe weather alerts in your inbox..

×

10-Day Weather Forecast

Almanac

Astronomy

Feb. 22, 2018 Rise Set
Actual Time
Civil Twilight
Nautical Twilight
Astronomical Twilight
Moon
Length of Visible Light
Length of Day
Tomorrow will be .
, % of the Moon is Illuminated

Today's Extremes

State Highs State Lows

Community

WunderPhotos

Category 6

Welcome to Category 6. This is the collective home for Weather Underground's featured writeups by Dr. Jeff Masters (right), Bob Henson (left), Chris Burt, and other regular contributors.

Nearby

Air Quality

  Air Quality AQ Index Pollutant
Not available.

Snow Depth

Station Depth Elevation

Earthquake Activity

City Distance Mag. Time & Date
Minimum magnitude displayed is 2.5.

Coastal Water Temperatures

Place Temperature

Stations

Nearby Weather Stations

Station Location Temp. Windchill Dew Point Humidity Wind Precip. Elev Updated Type
                   

Watches & Warnings

Winter Weather Advisory
Issued: 7:56 AM CST Feb. 22, 2018 – National Weather Service

... Winter Weather Advisory remains in effect until noon CST
today...

* what... freezing rain. Additional ice accumulations of a light
glaze are expected.

* Where... portions of central and east central Missouri and
south central and southwest Illinois.

* When... until noon CST today.

* Additional details... the ice will result in very slippery
conditions on sidewalks, roads and bridges, including during
the morning commute.

Precautionary/preparedness actions...

A Winter Weather Advisory means that periods of freezing rain or
freezing drizzle will cause travel difficulties. Be prepared for
slippery roads. Slow down and use caution while driving. In
Illinois, call 1-800-452-4368 for Road information. In Missouri,
call 1-888-275-6636 for Road information.